Time;durP1;ratioP1;P1;durP2;ratioP2;P2;SDS_P1;SDS_P2;PMS_P1;PMS_P2;Temp;Humidity;BMP_temperature;BMP_pressure;BME280_temperature;BME280_humidity;BME280_pressure;Samples;Min_cycle;Max_cycle;Signal;HPM_P1;HPM_P2
2022/10/31 00:04:05;;;;;;;14.60;5.97;;;;;;;16.76;51.86;100201.59;10264813;28;20244;-69
2022/10/31 00:09:07;;;;;;;8.47;5.93;;;;;;;18.60;48.69;100144.38;10260138;28;20226;-71
2022/10/31 00:14:08;;;;;;;7.93;6.13;;;;;;;18.39;48.72;100177.38;10257974;28;20902;-68
2022/10/31 00:19:10;;;;;;;11.60;6.27;;;;;;;17.32;51.02;100224.38;10277466;28;20292;-70
2022/10/31 00:24:12;;;;;;;9.73;6.10;;;;;;;17.97;49.53;100193.47;10265750;28;20229;-68
2022/10/31 00:29:13;;;;;;;11.60;5.93;;;;;;;16.89;50.13;100196.13;10258590;28;20233;-69
2022/10/31 00:34:15;;;;;;;8.57;5.53;;;;;;;17.89;48.93;100194.56;10263231;28;20237;-68
2022/10/31 00:39:16;;;;;;;10.57;5.70;;;;;;;17.98;48.98;100201.34;10261112;28;20226;-71
2022/10/31 00:44:18;;;;;;;13.60;6.57;;;;;;;17.55;49.46;100210.25;10261935;28;20235;-69
2022/10/31 00:49:20;;;;;;;10.63;6.57;;;;;;;18.24;48.68;100170.44;10258744;28;20280;-71
2022/10/31 00:54:27;;;;;;;10.87;6.63;;;;;;;17.83;49.36;100198.16;10263405;28;20238;-70
2022/10/31 00:59:29;;;;;;;11.43;6.50;;;;;;;16.49;51.84;100219.78;10271306;28;20714;-70
2022/10/31 01:04:31;;;;;;;10.00;6.33;;;;;;;17.24;50.43;100216.50;10289878;28;20801;-67
2022/10/31 01:09:32;;;;;;;8.70;6.27;;;;;;;16.79;51.43;100217.38;10260889;28;20237;-68
2022/10/31 01:14:34;;;;;;;9.43;6.23;;;;;;;17.39;50.33;100175.63;10264383;28;20249;-69
2022/10/31 01:19:35;;;;;;;11.33;6.83;;;;;;;18.17;48.62;100158.03;10255657;28;20239;-68
2022/10/31 01:24:37;;;;;;;12.17;6.37;;;;;;;16.86;50.74;100212.75;10267301;28;20954;-68
2022/10/31 01:29:39;;;;;;;11.70;7.20;;;;;;;17.37;50.53;100181.25;10263224;28;20230;-69
2022/10/31 01:34:40;;;;;;;10.10;7.27;;;;;;;15.72;53.35;100196.00;10260501;28;20249;-69
2022/10/31 01:39:42;;;;;;;17.07;7.80;;;;;;;15.66;53.57;100204.97;10255782;28;20233;-70
2022/10/31 01:44:51;;;;;;;12.57;7.43;;;;;;;16.05;53.00;100178.97;10266023;28;20237;-70
2022/10/31 01:49:56;;;;;;;9.03;6.73;;;;;;;15.52;53.30;100185.19;10265737;28;20242;-73
2022/10/31 01:55:32;;;;;;;11.93;7.23;;;;;;;16.78;50.66;100181.38;10257333;28;20238;-73
2022/10/31 02:00:34;;;;;;;9.37;6.27;;;;;;;17.31;48.81;100155.94;10259880;28;20822;-73
2022/10/31 02:05:36;;;;;;;11.10;6.60;;;;;;;16.68;49.96;100210.75;10257543;28;20289;-71
2022/10/31 02:10:38;;;;;;;11.90;6.67;;;;;;;16.81;49.78;100207.16;10256761;28;20726;-72
2022/10/31 02:15:42;;;;;;;9.27;6.90;;;;;;;17.08;49.77;100188.94;10266967;28;20240;-71
2022/10/31 02:21:11;;;;;;;10.93;6.47;;;;;;;16.96;49.64;100205.03;10256850;28;20222;-72
2022/10/31 02:26:31;;;;;;;12.80;6.93;;;;;;;17.35;49.12;100184.19;10251182;28;20472;-74
2022/10/31 02:31:43;;;;;;;12.37;7.20;;;;;;;17.05;49.31;100208.31;10262502;28;20233;-72
2022/10/31 02:37:09;;;;;;;10.53;7.27;;;;;;;16.34;50.49;100203.84;10250790;28;20666;-74
2022/10/31 02:42:29;;;;;;;14.30;7.33;;;;;;;16.58;51.21;100178.81;10263847;28;20237;-71
2022/10/31 02:47:36;;;;;;;10.67;6.63;;;;;;;17.64;48.49;100173.75;10252836;28;20257;-70
2022/10/31 02:52:38;;;;;;;11.53;6.60;;;;;;;17.10;49.23;100204.97;10278637;28;20238;-72
2022/10/31 02:57:42;;;;;;;10.60;6.33;;;;;;;16.65;50.07;100207.66;10254651;28;20405;-75
2022/10/31 03:02:52;;;;;;;15.60;6.90;;;;;;;17.23;49.26;100190.53;10267852;28;20246;-74
2022/10/31 03:08:22;;;;;;;11.33;7.30;;;;;;;17.28;49.36;100183.41;10261981;28;20238;-74
2022/10/31 03:13:50;;;;;;;9.77;6.97;;;;;;;17.14;49.48;100193.50;10259724;28;20234;-74
2022/10/31 03:19:05;;;;;;;11.53;7.03;;;;;;;15.95;51.07;100213.66;10246560;28;20224;-74
2022/10/31 03:24:09;;;;;;;9.10;6.20;;;;;;;17.17;49.44;100182.25;10260766;28;20229;-74
2022/10/31 03:29:15;;;;;;;7.13;5.07;;;;;;;16.75;49.67;100210.72;10255503;28;20237;-74
2022/10/31 03:34:19;;;;;;;8.83;6.10;;;;;;;15.61;51.54;100221.75;10253155;28;20228;-74
2022/10/31 03:39:22;;;;;;;11.90;5.90;;;;;;;16.21;50.61;100216.31;10264125;28;20245;-74
2022/10/31 03:44:26;;;;;;;11.17;5.20;;;;;;;16.71;49.95;100193.28;10255912;28;20246;-74
2022/10/31 03:49:29;;;;;;;7.77;5.10;;;;;;;15.63;52.33;100210.78;10261037;28;20888;-71
2022/10/31 03:54:51;;;;;;;8.73;4.97;;;;;;;15.64;51.66;100202.47;10258164;28;20256;-74
2022/10/31 04:00:06;;;;;;;7.53;5.07;;;;;;;16.42;50.19;100180.13;10268698;28;20726;-75
2022/10/31 04:05:11;;;;;;;8.43;5.13;;;;;;;16.17;50.37;100188.06;10260348;28;20233;-74
2022/10/31 04:10:15;;;;;;;10.23;5.23;;;;;;;16.03;50.44;100192.66;10263012;28;20235;-74
2022/10/31 04:15:19;;;;;;;10.03;5.27;;;;;;;14.72;53.44;100196.66;10274551;28;21019;-72
2022/10/31 04:20:30;;;;;;;8.50;5.13;;;;;;;16.34;49.90;100168.72;10278080;28;20241;-74
2022/10/31 04:25:32;;;;;;;9.57;5.27;;;;;;;17.07;48.60;100157.53;10271654;28;20256;-75
2022/10/31 04:30:33;;;;;;;9.10;5.57;;;;;;;15.98;50.36;100219.47;10264664;28;20317;-72
2022/10/31 04:35:35;;;;;;;10.33;5.50;;;;;;;15.16;51.42;100208.00;10274550;28;20296;-73
2022/10/31 04:40:37;;;;;;;8.80;5.77;;;;;;;14.55;53.40;100193.47;10287745;28;20337;-74
2022/10/31 04:45:38;;;;;;;10.47;5.43;;;;;;;14.56;54.29;100205.06;10274291;28;20874;-72
2022/10/31 04:50:40;;;;;;;11.23;6.07;;;;;;;14.20;54.80;100184.63;10275470;28;20238;-67
2022/10/31 04:55:42;;;;;;;10.97;6.50;;;;;;;13.83;55.50;100157.91;10267337;28;20241;-68
2022/10/31 05:00:43;;;;;;;12.27;6.23;;;;;;;15.19;52.54;100155.56;10265417;28;21014;-71
2022/10/31 05:05:45;;;;;;;15.03;5.97;;;;;;;12.66;56.45;100128.72;10265073;28;20485;-70
2022/10/31 05:10:47;;;;;;;8.37;6.53;;;;;;;13.81;55.30;100143.78;10250929;28;20223;-70
2022/10/31 05:15:49;;;;;;;10.73;6.87;;;;;;;12.64;57.17;100160.31;10258148;28;20726;-70
2022/10/31 05:20:52;;;;;;;10.70;8.40;;;;;;;11.45;59.03;100134.25;10286513;28;20226;-72
2022/10/31 05:25:54;;;;;;;14.73;7.33;;;;;;;12.71;56.61;100131.66;10256471;28;20237;-69
2022/10/31 05:30:55;;;;;;;9.97;7.43;;;;;;;13.67;54.47;100118.66;10238537;28;20246;-69
2022/10/31 05:35:57;;;;;;;12.77;6.20;;;;;;;12.64;54.52;100189.84;10249597;28;20238;-69
2022/10/31 05:41:01;;;;;;;9.33;5.80;;;;;;;14.34;52.46;100129.81;10257274;28;20240;-69
2022/10/31 05:46:03;;;;;;;9.73;7.10;;;;;;;12.93;56.69;100175.47;10245535;28;20253;-72
2022/10/31 05:51:05;;;;;;;10.93;7.40;;;;;;;13.85;53.95;100141.53;10260086;28;20710;-71
2022/10/31 05:56:06;;;;;;;10.47;7.60;;;;;;;13.67;54.27;100185.06;10251898;28;20723;-72
2022/10/31 06:01:08;;;;;;;11.90;7.33;;;;;;;13.93;54.25;100160.22;10265121;28;21168;-71
2022/10/31 06:06:10;;;;;;;11.10;7.70;;;;;;;12.93;55.90;100203.16;10259895;28;20249;-70
2022/10/31 06:11:11;;;;;;;13.60;7.43;;;;;;;13.43;55.45;100178.25;10261520;28;20225;-69
2022/10/31 06:16:13;;;;;;;12.43;8.23;;;;;;;13.40;56.24;100181.34;10268953;28;20460;-70
2022/10/31 06:21:15;;;;;;;11.63;8.03;;;;;;;15.31;51.60;100168.19;10255477;28;20431;-69
2022/10/31 06:26:19;;;;;;;11.00;8.10;;;;;;;13.04;56.72;100211.75;10285064;28;20230;-69
2022/10/31 06:31:21;;;;;;;9.27;7.03;;;;;;;13.98;54.39;100206.19;10286774;28;20237;-69
2022/10/31 06:36:22;;;;;;;9.53;6.83;;;;;;;13.63;54.73;100192.72;10272798;28;20880;-69
2022/10/31 06:41:24;;;;;;;10.70;6.90;;;;;;;14.06;53.88;100196.31;10273114;28;20234;-68
2022/10/31 06:46:26;;;;;;;10.27;7.57;;;;;;;12.53;57.68;100224.16;10271045;28;20233;-70
2022/10/31 06:51:27;;;;;;;13.67;7.70;;;;;;;14.04;54.75;100173.13;10264096;28;20242;-68
2022/10/31 06:56:29;;;;;;;11.57;7.57;;;;;;;13.50;55.99;100187.22;10266299;28;20637;-71
2022/10/31 07:01:31;;;;;;;14.60;8.97;;;;;;;14.22;54.76;100177.16;10309496;28;20726;-71
2022/10/31 07:06:32;;;;;;;8.90;8.00;;;;;;;15.57;52.11;100190.84;10284806;28;20315;-69
2022/10/31 07:11:34;;;;;;;13.60;7.40;;;;;;;14.25;53.03;100257.53;10278297;28;20233;-69
2022/10/31 07:16:35;;;;;;;10.10;6.90;;;;;;;13.40;55.65;100264.69;10302199;28;20238;-70
2022/10/31 07:21:37;;;;;;;12.80;7.23;;;;;;;16.06;50.67;100203.03;10283573;28;20237;-68
2022/10/31 07:26:39;;;;;;;16.07;6.57;;;;;;;15.06;52.18;100254.19;10291324;28;20241;-70
2022/10/31 07:31:40;;;;;;;12.27;7.40;;;;;;;15.18;52.74;100235.56;10295510;28;20241;-69
2022/10/31 07:36:42;;;;;;;16.50;7.30;;;;;;;15.89;51.13;100236.88;10276609;28;20241;-69
2022/10/31 07:41:43;;;;;;;11.17;6.67;;;;;;;16.04;50.34;100258.25;10277767;28;20241;-69
2022/10/31 07:46:45;;;;;;;8.20;6.53;;;;;;;14.52;53.23;100288.13;10287103;28;20237;-68
2022/10/31 07:51:47;;;;;;;12.70;6.77;;;;;;;14.41;54.57;100264.47;10272590;28;20746;-75
2022/10/31 07:56:48;;;;;;;12.10;7.10;;;;;;;13.70;55.96;100272.59;10293323;28;20291;-74
2022/10/31 08:01:50;;;;;;;10.20;6.87;;;;;;;15.29;53.06;100213.41;10289886;28;20241;-75
2022/10/31 08:06:51;;;;;;;11.77;7.47;;;;;;;14.63;54.37;100249.03;10285054;28;20240;-77
2022/10/31 08:11:53;;;;;;;11.27;6.97;;;;;;;14.00;55.18;100271.41;10286867;28;20830;-73
2022/10/31 08:16:55;;;;;;;12.77;7.13;;;;;;;15.95;52.06;100200.97;10290715;28;20400;-77
2022/10/31 08:21:58;;;;;;;10.13;7.20;;;;;;;13.97;55.74;100279.88;10294937;28;20245;-74
2022/10/31 08:26:59;;;;;;;10.20;7.17;;;;;;;14.53;55.13;100237.81;10284170;28;20334;-74
2022/10/31 08:32:01;;;;;;;10.07;8.37;;;;;;;13.54;56.98;100266.44;10279349;28;20241;-77
2022/10/31 08:37:02;;;;;;;11.03;7.43;;;;;;;14.49;54.44;100256.22;10276638;28;20246;-77
2022/10/31 08:42:04;;;;;;;11.40;7.33;;;;;;;14.65;55.59;100222.75;10279208;28;20536;-75
2022/10/31 08:47:05;;;;;;;11.10;7.30;;;;;;;15.14;54.56;100199.28;10273151;28;20966;-74
2022/10/31 08:52:07;;;;;;;8.43;7.00;;;;;;;13.36;57.97;100253.47;10263036;28;20237;-77
2022/10/31 08:57:14;;;;;;;14.07;7.47;;;;;;;15.71;54.57;100170.09;10259020;28;20371;-75
2022/10/31 09:02:16;;;;;;;10.27;6.93;;;;;;;15.41;54.68;100183.97;10276123;28;20288;-74
2022/10/31 09:07:18;;;;;;;9.20;6.67;;;;;;;16.17;52.50;100190.75;10347602;28;20239;-77
2022/10/31 09:12:21;;;;;;;10.30;6.43;;;;;;;17.25;49.94;100174.91;10432348;28;20270;-75
2022/10/31 09:17:23;;;;;;;8.17;5.90;;;;;;;15.12;54.39;100253.41;10243884;28;20405;-75
2022/10/31 09:22:25;;;;;;;8.83;6.30;;;;;;;15.61;53.53;100218.25;10040474;29;20248;-74
2022/10/31 09:27:27;;;;;;;9.33;6.70;;;;;;;14.93;55.07;100225.38;9401199;29;1191207;-75
2022/10/31 09:32:29;;;;;;;11.20;6.40;;;;;;;16.02;53.46;100176.69;9026911;31;20932;-74
2022/10/31 09:37:30;;;;;;;6.60;5.57;;;;;;;15.70;52.55;100209.72;8986177;32;20267;-76
2022/10/31 09:42:46;;;;;;;8.37;5.87;;;;;;;15.59;52.80;100223.00;8993396;32;20333;-76
2022/10/31 09:48:09;;;;;;;7.63;5.93;;;;;;;16.09;52.08;100192.84;8983740;32;20465;-78
2022/10/31 09:53:22;;;;;;;8.63;5.77;;;;;;;15.27;54.25;100220.06;8994848;32;20933;-74
2022/10/31 09:58:28;;;;;;;12.73;5.83;;;;;;;16.34;51.88;100182.22;8992128;32;20315;-75
2022/10/31 10:03:44;;;;;;;8.80;6.27;;;;;;;16.38;53.02;100170.78;8999984;32;20253;-75
2022/10/31 10:08:46;;;;;;;9.37;5.17;;;;;;;18.51;49.77;100139.50;8995533;32;20743;-76
2022/10/31 10:13:56;;;;;;;10.77;5.47;;;;;;;16.73;51.14;100175.81;8998516;32;20702;-74
2022/10/31 10:19:17;;;;;;;11.93;5.60;;;;;;;17.10;51.70;100134.66;8993307;32;20314;-75
2022/10/31 10:24:43;;;;;;;9.47;5.23;;;;;;;16.16;53.20;100193.66;8971706;32;20325;-76
2022/10/31 10:29:52;;;;;;;7.53;5.80;;;;;;;16.91;52.86;100139.97;9253841;30;20260;-76
2022/10/31 10:34:59;;;;;;;11.87;5.50;;;;;;;17.15;52.49;100110.50;9565677;30;1152642;-76
2022/10/31 10:40:19;;;;;;;9.37;5.37;;;;;;;15.68;55.44;100190.22;9666289;30;21263;-76
2022/10/31 10:50:50;;;;;;;8.90;5.37;;;;;;;17.03;52.98;100091.47;10507042;27;20723;-36
2022/10/31 10:56:13;;;;;;;11.13;5.30;;;;;;;16.49;53.76;100101.75;10347164;28;1316037;-34
2022/10/31 11:06:22;;;;;;;7.37;5.00;;;;;;;14.88;57.37;100109.28;10305614;27;21433;-73
2022/10/31 11:11:27;;;;;;;8.40;4.80;;;;;;;14.97;57.83;100091.06;10327695;28;20294;-73
2022/10/31 11:16:41;;;;;;;6.73;5.00;;;;;;;16.82;54.05;100062.91;10317176;28;20232;-75
2022/10/31 11:21:45;;;;;;;11.30;5.73;;;;;;;17.14;53.33;100049.34;10324182;28;20230;-77
2022/10/31 11:27:22;;;;;;;10.40;5.10;;;;;;;16.95;53.74;100052.00;10308838;28;20311;-73
2022/10/31 11:32:26;;;;;;;8.40;5.20;;;;;;;17.31;52.30;100063.97;10304079;28;20241;-75
2022/10/31 11:37:31;;;;;;;7.90;4.33;;;;;;;17.46;52.21;100063.63;10305491;28;20234;-76
2022/10/31 11:42:40;;;;;;;6.70;4.30;;;;;;;15.38;56.04;100135.00;10320237;28;20241;-77
2022/10/31 11:47:49;;;;;;;9.10;4.87;;;;;;;16.99;52.74;100047.81;10307704;28;20387;-74
2022/10/31 11:52:55;;;;;;;18.60;6.07;;;;;;;17.50;52.41;100042.34;10296392;28;20745;-73
2022/10/31 11:57:57;;;;;;;9.20;4.43;;;;;;;16.87;52.77;100052.25;10304830;28;20233;-74
2022/10/31 12:03:23;;;;;;;11.77;4.83;;;;;;;17.00;52.75;100021.59;10298148;28;20502;-77
2022/10/31 12:08:30;;;;;;;5.80;4.47;;;;;;;16.84;54.52;100008.59;10316685;28;20245;-73
2022/10/31 12:14:00;;;;;;;9.37;4.30;;;;;;;17.09;53.56;100016.75;10294191;28;20724;-74
2022/10/31 12:19:13;;;;;;;6.03;4.30;;;;;;;17.82;51.85;99983.50;10309466;28;20697;-75
2022/10/31 12:24:36;;;;;;;7.40;4.73;;;;;;;17.44;52.51;99976.44;10282537;28;20290;-77
2022/10/31 12:29:41;;;;;;;8.13;4.30;;;;;;;18.10;51.03;99969.41;10287467;28;20323;-73
2022/10/31 12:34:42;;;;;;;6.93;4.30;;;;;;;17.54;52.25;99971.34;10299895;28;20285;-77
2022/10/31 12:39:55;;;;;;;5.93;3.93;;;;;;;15.92;55.16;100023.28;10302502;28;20621;-76
2022/10/31 12:45:00;;;;;;;6.23;4.50;;;;;;;16.41;55.34;100005.59;10295971;28;20241;-75
2022/10/31 12:50:20;;;;;;;8.07;4.67;;;;;;;16.87;54.30;99975.75;10307464;28;20233;-77
2022/10/31 12:55:37;;;;;;;7.20;4.53;;;;;;;17.07;53.83;99938.56;10304231;28;20342;-75
2022/10/31 13:00:44;;;;;;;7.80;4.50;;;;;;;16.13;55.18;99975.41;10297571;28;20262;-75
2022/10/31 13:05:51;;;;;;;7.47;4.50;;;;;;;18.24;51.33;99902.31;10306570;28;20236;-76
2022/10/31 13:11:09;;;;;;;10.40;4.70;;;;;;;18.05;51.99;99881.78;10306264;28;20249;-74
2022/10/31 13:16:21;;;;;;;8.90;4.40;;;;;;;18.48;51.11;99904.28;10299159;28;20232;-75
2022/10/31 13:21:26;;;;;;;8.70;5.23;;;;;;;17.23;53.35;99975.00;10297643;28;20241;-76
2022/10/31 13:26:40;;;;;;;7.67;4.60;;;;;;;18.40;50.99;99889.16;10285762;28;20549;-75
2022/10/31 13:31:42;;;;;;;10.57;4.63;;;;;;;16.49;54.99;99955.09;10296917;28;20766;-74
2022/10/31 13:36:57;;;;;;;10.37;4.87;;;;;;;16.50;55.06;99918.91;10301045;28;20233;-74
2022/10/31 13:42:19;;;;;;;8.10;4.80;;;;;;;16.81;53.65;99916.13;10251616;28;20237;-76
2022/10/31 13:47:26;;;;;;;8.10;6.17;;;;;;;18.68;50.59;99850.53;10261535;28;20922;-75
2022/10/31 13:52:27;;;;;;;10.90;5.83;;;;;;;18.98;50.16;99842.28;10276493;28;20249;-75
2022/10/31 13:57:41;;;;;;;8.47;5.77;;;;;;;19.15;49.81;99861.34;10284383;28;20238;-75
2022/10/31 14:02:48;;;;;;;8.47;5.40;;;;;;;19.15;50.22;99847.78;10270198;28;20265;-70
2022/10/31 14:07:52;;;;;;;8.50;5.20;;;;;;;17.63;51.94;99900.69;10292894;28;20237;-71
2022/10/31 14:13:14;;;;;;;7.97;5.10;;;;;;;18.78;49.93;99839.91;10303219;28;20237;-70
2022/10/31 14:18:30;;;;;;;8.87;5.03;;;;;;;18.77;50.10;99854.53;10299394;28;20291;-69
2022/10/31 14:23:36;;;;;;;9.20;5.03;;;;;;;20.20;48.48;99825.81;10293539;28;20420;-71
2022/10/31 14:28:37;;;;;;;7.67;4.90;;;;;;;19.87;48.88;99819.28;10292595;28;20645;-70
2022/10/31 14:33:42;;;;;;;11.53;5.03;;;;;;;19.64;49.38;99801.25;10296378;28;20314;-71
2022/10/31 14:39:17;;;;;;;8.50;4.73;;;;;;;18.41;50.88;99833.94;10294925;28;20291;-70
2022/10/31 14:44:47;;;;;;;11.83;5.03;;;;;;;19.09;50.18;99780.94;10293020;28;20311;-71
2022/10/31 14:50:34;;;;;;;8.40;5.00;;;;;;;19.14;50.35;99782.91;10291387;28;20237;-75
2022/10/31 14:55:46;;;;;;;9.90;4.90;;;;;;;18.75;50.55;99790.78;10299995;28;20306;-68
2022/10/31 15:05:13;;;;;;;8.10;5.10;;;;;;;16.55;55.92;99735.38;10435117;27;1986712;-73
2022/10/31 15:10:29;;;;;;;5.93;5.10;;;;;;;16.61;55.52;99723.69;10464695;28;20231;-74
2022/10/31 15:15:32;;;;;;;8.90;5.83;;;;;;;16.24;55.74;99726.34;10466076;28;20241;-70
2022/10/31 15:20:42;;;;;;;9.40;5.90;;;;;;;16.69;54.97;99682.88;10461492;28;20272;-76
2022/10/31 15:25:45;;;;;;;10.57;6.30;;;;;;;16.45;54.88;99668.44;10460199;28;20242;-70
2022/10/31 15:30:58;;;;;;;10.40;5.87;;;;;;;17.22;53.58;99670.50;10455406;28;20222;-73
2022/10/31 15:36:02;;;;;;;7.07;5.63;;;;;;;15.35;56.35;99721.03;10465505;28;20231;-70
2022/10/31 15:41:21;;;;;;;8.67;5.47;;;;;;;18.02;52.15;99696.28;10466983;28;20227;-71
2022/10/31 15:46:23;;;;;;;12.27;6.10;;;;;;;16.35;54.40;99774.25;10463201;28;20280;-71
2022/10/31 15:51:31;;;;;;;8.73;6.03;;;;;;;16.06;55.68;99756.84;10463386;28;20289;-72
2022/10/31 15:56:33;;;;;;;13.90;8.13;;;;;;;15.92;56.44;99810.09;10497162;28;20237;-75
2022/10/31 16:01:34;;;;;;;9.40;7.10;;;;;;;17.84;52.39;99707.22;10462210;28;20238;-72
2022/10/31 16:06:36;;;;;;;14.17;7.97;;;;;;;16.41;53.94;99769.81;10460536;28;20335;-72
2022/10/31 16:11:39;;;;;;;9.43;6.77;;;;;;;17.52;53.22;99705.59;10453184;28;20245;-72
2022/10/31 16:16:46;;;;;;;12.77;6.67;;;;;;;17.76;51.57;99686.72;10417119;28;20243;-72
2022/10/31 16:21:52;;;;;;;10.80;6.07;;;;;;;16.66;53.80;99747.34;10406673;28;20231;-72
2022/10/31 16:27:04;;;;;;;9.50;5.50;;;;;;;17.92;51.14;99685.22;10427863;28;20227;-72
2022/10/31 16:32:26;;;;;;;10.00;7.40;;;;;;;16.21;55.77;99713.31;10418526;28;20738;-72
2022/10/31 16:37:27;;;;;;;11.30;6.63;;;;;;;16.48;54.51;99713.03;10430281;28;20298;-71
2022/10/31 16:42:29;;;;;;;13.43;6.37;;;;;;;15.73;57.75;99679.72;10425329;28;20246;-75
2022/10/31 16:47:31;;;;;;;11.60;6.67;;;;;;;15.43;57.29;99712.69;10420985;28;21279;-70
2022/10/31 16:52:32;;;;;;;11.93;7.03;;;;;;;17.34;53.21;99652.44;10461829;28;20242;-70
2022/10/31 16:57:51;;;;;;;9.27;6.33;;;;;;;15.05;58.26;99721.66;10467991;28;20230;-70
2022/10/31 17:02:56;;;;;;;15.10;13.60;;;;;;;16.56;54.52;99710.84;10465577;28;20941;-69
2022/10/31 17:07:58;;;;;;;13.77;7.13;;;;;;;14.65;59.79;99780.22;10466045;28;20939;-68
2022/10/31 17:13:03;;;;;;;12.17;7.43;;;;;;;14.31;59.54;99758.75;10472391;28;20882;-70
2022/10/31 17:18:05;;;;;;;9.37;6.67;;;;;;;14.07;60.97;99764.78;10469431;28;20222;-70
2022/10/31 17:23:09;;;;;;;10.57;6.80;;;;;;;14.84;59.86;99719.28;10460362;28;20316;-71
2022/10/31 17:28:13;;;;;;;12.80;7.60;;;;;;;14.62;59.75;99756.41;10445211;28;20261;-74
2022/10/31 17:33:15;;;;;;;11.87;7.90;;;;;;;14.21;60.79;99743.03;10467437;28;20718;-72
2022/10/31 17:38:17;;;;;;;13.53;8.60;;;;;;;14.16;61.11;99761.69;10464570;28;20242;-73
2022/10/31 17:43:19;;;;;;;15.30;10.17;;;;;;;14.04;61.80;99760.63;10470279;28;20238;-70
2022/10/31 17:48:21;;;;;;;16.93;10.73;;;;;;;14.00;62.04;99757.53;10462424;28;20233;-69
2022/10/31 17:53:22;;;;;;;17.03;11.40;;;;;;;14.45;61.87;99747.97;10467669;28;20245;-70
2022/10/31 17:58:24;;;;;;;17.57;11.87;;;;;;;14.63;60.89;99740.06;10458917;28;20227;-76
2022/10/31 18:03:26;;;;;;;21.60;12.40;;;;;;;14.07;62.06;99749.50;10434235;28;20250;-78
2022/10/31 18:08:30;;;;;;;15.20;11.07;;;;;;;15.65;58.40;99736.63;10426615;28;20223;-70
2022/10/31 18:13:31;;;;;;;16.97;10.40;;;;;;;17.09;54.98;99747.25;10419340;28;20235;-70
2022/10/31 18:18:33;;;;;;;18.87;10.57;;;;;;;17.51;52.76;99758.09;10425786;28;20243;-69
2022/10/31 18:23:35;;;;;;;17.90;11.13;;;;;;;17.34;52.90;99774.16;10428970;28;20234;-70
2022/10/31 18:28:37;;;;;;;19.53;10.97;;;;;;;17.73;52.15;99807.09;10426944;28;20288;-70
2022/10/31 18:33:41;;;;;;;22.13;15.43;;;;;;;15.84;56.56;99835.50;10426268;28;20239;-69
2022/10/31 18:38:45;;;;;;;18.73;14.13;;;;;;;16.90;53.85;99800.44;10419697;28;20236;-69
2022/10/31 18:43:47;;;;;;;15.30;11.80;;;;;;;17.69;52.18;99824.03;10423241;28;20253;-69
2022/10/31 18:48:48;;;;;;;21.90;13.93;;;;;;;16.54;54.04;99833.69;10424373;28;20227;-69
2022/10/31 18:53:56;;;;;;;21.87;15.63;;;;;;;15.90;55.43;99857.25;10451370;28;20238;-69
2022/10/31 18:59:02;;;;;;;23.70;14.87;;;;;;;17.96;51.59;99793.84;10415835;28;20982;-69
2022/10/31 19:04:04;;;;;;;21.20;13.97;;;;;;;16.19;54.87;99834.19;10423093;28;20242;-68
2022/10/31 19:09:08;;;;;;;17.73;13.00;;;;;;;15.46;56.54;99840.88;10423392;28;20321;-69
2022/10/31 19:14:12;;;;;;;16.60;12.50;;;;;;;16.22;54.83;99788.66;10426112;28;20240;-68
2022/10/31 19:19:13;;;;;;;20.30;14.93;;;;;;;17.32;52.63;99784.34;10424209;28;20227;-68
2022/10/31 19:24:15;;;;;;;22.97;17.20;;;;;;;16.66;53.51;99818.41;10449763;28;20257;-68
2022/10/31 19:29:17;;;;;;;44.40;26.53;;;;;;;17.42;52.04;99800.03;10449802;28;20237;-68
2022/10/31 19:34:18;;;;;;;40.77;25.97;;;;;;;17.05;52.37;99796.56;10460455;28;20288;-69
2022/10/31 19:39:20;;;;;;;19.30;11.40;;;;;;;16.57;53.57;99839.47;10443852;28;20226;-68
2022/10/31 19:44:21;;;;;;;13.20;9.27;;;;;;;15.91;55.01;99845.41;10463190;28;20215;-67
2022/10/31 19:49:23;;;;;;;17.20;12.37;;;;;;;16.14;53.88;99837.53;10468643;28;20227;-70
2022/10/31 19:54:25;;;;;;;15.50;11.27;;;;;;;16.37;53.35;99828.88;10462491;28;20417;-70
2022/10/31 19:59:26;;;;;;;23.60;15.23;;;;;;;16.91;53.28;99791.31;10412540;28;20242;-69
2022/10/31 20:04:28;;;;;;;15.00;10.17;;;;;;;15.24;56.02;99837.66;10435396;28;20954;-67
2022/10/31 20:09:30;;;;;;;22.87;16.23;;;;;;;17.44;52.10;99775.44;10436457;28;20894;-68
2022/10/31 20:14:31;;;;;;;19.67;10.73;;;;;;;16.85;52.63;99804.88;10467592;28;20234;-69
2022/10/31 20:19:33;;;;;;;13.30;8.57;;;;;;;13.93;58.35;99788.97;10444522;28;20231;-70
2022/10/31 20:24:35;;;;;;;12.17;8.30;;;;;;;13.56;60.09;99801.97;10444130;28;20337;-69
2022/10/31 20:29:36;;;;;;;12.93;8.83;;;;;;;14.10;59.47;99820.88;10426707;28;20234;-70
2022/10/31 20:34:38;;;;;;;11.63;7.57;;;;;;;14.44;59.38;99787.50;10432316;28;20273;-67
2022/10/31 20:39:40;;;;;;;11.70;7.73;;;;;;;16.00;55.01;99749.66;10429136;28;20292;-67
2022/10/31 20:44:41;;;;;;;13.70;7.80;;;;;;;16.07;54.18;99783.59;10425360;28;20258;-70
2022/10/31 20:49:43;;;;;;;16.30;9.17;;;;;;;15.13;56.15;99848.09;10399734;28;20230;-66
2022/10/31 20:55:09;;;;;;;14.03;9.10;;;;;;;15.24;56.16;99819.63;10416069;28;20278;-66
2022/10/31 21:00:36;;;;;;;15.60;9.13;;;;;;;15.44;55.86;99791.75;10416229;28;20267;-68
2022/10/31 21:05:37;;;;;;;15.60;10.13;;;;;;;16.42;53.28;99779.59;10434937;28;20330;-70
2022/10/31 21:10:39;;;;;;;13.73;9.53;;;;;;;15.02;57.01;99805.63;10427058;28;20231;-69
2022/10/31 21:16:10;;;;;;;11.47;8.90;;;;;;;15.12;56.02;99805.16;10429686;28;20199;-70
2022/10/31 21:21:36;;;;;;;13.67;8.60;;;;;;;15.27;55.79;99799.50;10498872;28;20630;-67
2022/10/31 21:27:03;;;;;;;13.20;9.10;;;;;;;16.50;52.90;99743.34;10478371;28;20207;-68
2022/10/31 21:32:28;;;;;;;15.60;8.80;;;;;;;14.68;56.41;99815.66;10470458;28;20218;-70
2022/10/31 21:37:56;;;;;;;12.93;9.90;;;;;;;13.79;57.86;99816.91;10446280;28;20652;-70
2022/10/31 21:43:22;;;;;;;17.50;9.60;;;;;;;14.26;57.74;99814.28;10519145;27;20325;-68
2022/10/31 21:48:49;;;;;;;15.00;9.67;;;;;;;14.89;57.55;99754.47;10501166;27;20952;-69
2022/10/31 21:54:26;;;;;;;13.37;10.93;;;;;;;14.78;56.39;99775.63;10528006;27;20250;-69
2022/10/31 21:59:52;;;;;;;13.77;10.33;;;;;;;13.61;58.77;99787.91;10529039;27;20206;-67
2022/10/31 22:05:17;;;;;;;12.47;10.20;;;;;;;14.38;57.58;99789.19;10516365;27;20229;-68
2022/10/31 22:10:43;;;;;;;13.43;9.70;;;;;;;14.51;56.55;99809.03;10493789;28;20283;-69
2022/10/31 22:16:12;;;;;;;12.73;8.50;;;;;;;16.17;53.59;99752.59;10518665;27;20251;-68
2022/10/31 22:21:46;;;;;;;15.50;11.40;;;;;;;15.14;55.02;99779.66;10510042;27;20221;-68
2022/10/31 22:27:11;;;;;;;13.20;9.63;;;;;;;13.82;56.95;99814.63;10518322;27;20272;-69
2022/10/31 22:32:37;;;;;;;15.63;12.70;;;;;;;15.70;53.68;99743.03;10506379;27;20202;-69
2022/10/31 22:38:04;;;;;;;15.07;9.80;;;;;;;15.68;53.11;99776.66;10502978;27;20615;-68
2022/10/31 22:43:30;;;;;;;16.70;9.47;;;;;;;15.91;52.55;99773.38;10502901;27;20226;-67
2022/10/31 22:48:59;;;;;;;14.30;9.47;;;;;;;15.79;53.71;99773.28;10496721;27;20734;-67
2022/10/31 22:54:25;;;;;;;18.00;11.73;;;;;;;14.68;56.01;99798.66;10504759;27;20206;-70
2022/10/31 22:59:50;;;;;;;18.43;14.67;;;;;;;15.66;53.95;99767.97;10500783;27;20740;-69
2022/10/31 23:05:17;;;;;;;13.70;10.43;;;;;;;15.60;53.93;99791.22;10471497;28;20225;-70
2022/10/31 23:10:43;;;;;;;13.53;9.87;;;;;;;14.30;56.09;99829.78;10497125;28;20307;-71
2022/10/31 23:16:11;;;;;;;15.00;9.13;;;;;;;15.34;53.91;99784.13;10493918;28;20256;-68
2022/10/31 23:21:53;;;;;;;12.87;8.60;;;;;;;12.69;58.96;99764.03;10499637;28;20226;-68
2022/10/31 23:27:21;;;;;;;13.17;8.77;;;;;;;12.89;59.59;99788.28;10504011;27;20247;-67
2022/10/31 23:33:36;;;;;;;12.63;9.03;;;;;;;13.48;59.10;99769.91;10499164;27;20407;-69
2022/10/31 23:39:52;;;;;;;14.53;9.13;;;;;;;13.10;60.77;99765.03;10496133;27;20625;-67
2022/10/31 23:46:07;;;;;;;16.33;9.73;;;;;;;12.99;61.68;99753.00;10499751;27;20349;-70
2022/10/31 23:52:24;;;;;;;14.60;9.17;;;;;;;14.24;57.76;99746.34;10494281;28;20249;-68